Hit Tracker is now ESPN Home Run Tracker! Hit Tracker founder Greg Rybarczyk is now collaborating with the ESPN Stats & Information Group to continue tracking all MLB home runs, and helping baseball fans know "How Far It Really Went!™" Please credit any information on this site to ESPN Stats & Information Group. For more information and analysis on home runs, please contact founder Greg Rybarczyk. E-Mail ESPN Home Run Tracker
Main Page | Ballparks | Park Overlays | Glossary | Highlight Homers | Feedback | Bio | 3 Types of HR's | AAA Home Run Derby Last Updated: September 23, 2016, 11:39 pm PST
If you want to know "How Far It Really Went!", then you've come to the right place! Welcome to the ESPN Home Run Tracker, where you can find accurate, transparently verifiable distances for every home run hit in MLB games. Please also check out the ESPN MLB Scoreboard throughout the 2016 season! Contact us at grybar@hittrackeronline.com.
Season:
Ballpark detail for Yankee Stadium
Ballpark # of Home Runs HR per game Avg.
True
Distance
Avg.
Speed
Off
Bat
Avg.
Std.
Dist.
Yankee Stadium 216 2.88 389.3 102.1 384.9

Scatter Plot of Home Runs Yankee Stadium
 Overlay Ballpark:
Without range rings   With range rings

2016 Season Home Runs for Yankee Stadium
Click headers to sort
Date Video Path Hitter Hitter
Team
Pitcher Pitcher
Team
INN Ballpark Type/
Luck
True
Dist.
Speed
Off
Bat
Elev.
Angle
Horiz.
Angle
Apex Impact Due To: Std.
Dist.
#
Parks
Wind Temp. Alt. ^
04/16/16 Video View Beltran, Carlos NYY Vincent, Nick SEA 7 Yankee Stadi... PL 369 96.3 29.1 75.8 86 0 -1 0 370 4
04/17/16 Video View Rodriguez, Alex NYY Iwakuma, Hisashi SEA 2 Yankee Stadi... ND 391 105.4 27.6 122.6 74 4 -1 0 387 30
04/15/16 Video View Gardner, Brett NYY Karns, Nathan SEA 1 Yankee Stadi... ND 381 105.9 24.5 62.6 64 1 -1 0 380 29
04/15/16 Video View Iannetta, Chris SEA Severino, Luis NYY 5 Yankee Stadi... PL 402 109.1 22.1 105.4 63 0 -1 0 404 30
04/16/16 Video View Martin, Leonys SEA Sabathia, CC NYY 5 Yankee Stadi... ND 419 107.1 28.0 74.2 101 -4 -2 0 425 30
04/05/16 Video View Correa, Carlos HOU Tanaka, Masahiro NYY 6 Yankee Stadi... PL 393 106.7 21.9 76.9 62 0 -1 0 395 25
04/05/16 Video View Gregorius, Didi NYY Giles, Ken HOU 8 Yankee Stadi... PL 386 99.8 26.2 79.8 81 -1 -3 0 389 16
04/06/16 Video View Correa, Carlos HOU Pineda, Michael NYY 1 Yankee Stadi... PL 386 103.4 29.3 114.2 92 -3 -4 0 394 30
04/06/16 Video View Springer, George HOU Pineda, Michael NYY 2 Yankee Stadi... PL 417 104.8 29.8 102.0 110 2 -5 0 420 30
04/06/16 Video View Castro, Starlin NYY Feliz, Michael HOU 2 Yankee Stadi... PL 428 108.1 23.1 96.7 78 0 -2 0 430 30
04/06/16 Video View Teixeira, Mark NYY Feliz, Michael HOU 3 Yankee Stadi... PL 365 99.4 32.1 65.9 102 -5 -4 0 375 29
04/06/16 Video View Correa, Carlos HOU Pineda, Michael NYY 5 Yankee Stadi... ND 459 113.5 21.4 87.3 80 0 -2 0 460 30
04/06/16 Video View Beltran, Carlos NYY Sipp, Tony HOU 6 Yankee Stadi... PL 367 99.9 36.9 120.0 118 13 -7 0 360 30
04/07/16 Video View White, Tyler HOU Eovaldi, Nathan NYY 2 Yankee Stadi... JE 414 100.2 30.6 92.0 104 11 -2 0 405 13
04/07/16 Video View Tucker, Preston HOU Eovaldi, Nathan NYY 2 Yankee Stadi... ND 396 105.2 29.5 57.9 87 4 -1 0 392 30
04/07/16 Video View McCann, Brian NYY Fiers, Mike HOU 4 Yankee Stadi... PL 354 101.4 26.0 50.5 61 4 -1 0 351 26
04/07/16 Video View Castro, Starlin NYY Fiers, Mike HOU 4 Yankee Stadi... PL/L 418 97.2 37.3 103.3 115 60 -3 0 359 4
04/07/16 Video View Teixeira, Mark NYY Giles, Ken HOU 7 Yankee Stadi... JE 346 97.6 26.8 123.5 58 6 0 0 341 1
04/20/16 Video View Gregorius, Didi NYY Graveman, Kendall OAK 2 Yankee Stadi... JE 336 97.5 26.1 56.1 58 0 -1 0 336 2
04/20/16 Video View Beltran, Carlos NYY Dull, Ryan OAK 8 Yankee Stadi... PL 371 100.5 34.6 67.7 119 -2 -3 0 376 29
04/21/16 Video View Canha, Mark OAK Severino, Luis NYY 5 Yankee Stadi... PL 384 102.7 24.2 73.8 64 3 0 0 382 6
04/21/16 Video View Davis, Khris OAK Shreve, Chasen NYY 7 Yankee Stadi... JE 426 102.4 29.8 93.6 103 10 0 0 417 26
04/21/16 Video View Crisp, Coco OAK Shreve, Chasen NYY 7 Yankee Stadi... ND 416 105.7 31.8 114.9 104 11 0 0 404 30
04/21/16 Video View Coghlan, Chris OAK Barbato, Johnny NYY 8 Yankee Stadi... PL 367 97.9 34.8 74.8 123 -5 0 0 372 7
04/22/16 Video View McCann, Brian NYY Moore, Matt TB 2 Yankee Stadi... PL 391 99.8 32.7 78.7 118 -2 1 0 391 21
04/23/16 Video View Kiermaier, Kevin TB Tanaka, Masahiro NYY 5 Yankee Stadi... PL 355 98.0 36.1 59.0 110 1 -1 0 355 29
04/23/16 Video View Gardner, Brett NYY Ramirez, Erasmo TB 9 Yankee Stadi... ND 392 104.4 25.9 72.4 83 -7 0 0 399 30
04/24/16 Video View Dickerson, Corey TB Pineda, Michael NYY 1 Yankee Stadi... ND 407 104.5 26.4 73.1 80 4 -1 0 404 29
04/24/16 Video View Souza Jr., Steven TB Pineda, Michael NYY 1 Yankee Stadi... ND 428 110.2 24.5 106.7 75 3 -1 0 426 30
04/24/16 Video View Pearce, Steve TB Pineda, Michael NYY 3 Yankee Stadi... PL/L 397 100.4 36.0 102.9 129 19 -3 0 379 23
04/24/16 Video View Souza Jr., Steven TB Pineda, Michael NYY 5 Yankee Stadi... ND 370 102.9 27.5 55.8 71 -1 -1 0 372 30
04/24/16 Video View Forsythe, Logan TB Goody, Nick NYY 8 Yankee Stadi... PL 379 102.4 24.8 71.2 67 0 0 0 379 20
05/06/16 Video View Ortiz, David BOS Pineda, Michael NYY 1 Yankee Stadi... PL 391 107.1 19.9 80.9 58 3 0 0 389 6
05/06/16 Video View Hicks, Aaron NYY Porcello, Rick BOS 7 Yankee Stadi... ND 434 110.7 22.4 81.2 76 0 -1 0 436 30
05/07/16 Video View Bradley Jr., Jackie BOS Eovaldi, Nathan NYY 5 Yankee Stadi... PL 377 97.1 30.6 78.1 98 0 -2 0 379 8
05/08/16 Video View Pedroia, Dustin BOS Severino, Luis NYY 1 Yankee Stadi... JE 348 93.0 35.2 71.0 105 5 -1 0 344 1
05/08/16 Video View Ortiz, David BOS Severino, Luis NYY 4 Yankee Stadi... ND 429 105.6 27.2 79.9 92 5 -1 0 425 29
05/08/16 Video View Ortiz, David BOS Severino, Luis NYY 7 Yankee Stadi... ND 400 101.9 29.4 71.0 91 7 -1 0 393 30
05/08/16 Video View Bogaerts, Xander BOS Shreve, Chasen NYY 8 Yankee Stadi... JE 405 109.6 20.6 100.3 58 -1 0 0 406 24
05/08/16 Video View Gardner, Brett NYY Wright, Steven BOS 9 Yankee Stadi... ND 394 109.6 23.0 65.1 62 1 0 0 393 30
05/09/16 Video View McCann, Brian NYY Young, Chris KC 1 Yankee Stadi... JE/L 377 94.7 38.3 76.1 122 33 0 0 343 0
05/09/16 Video View Gordon, Alex KC Nova, Ivan NYY 2 Yankee Stadi... JE 424 103.6 25.7 85.5 83 6 0 0 418 24
05/09/16 Video View Beltran, Carlos NYY Young, Chris KC 2 Yankee Stadi... ND 398 101.6 36.0 69.4 130 22 0 0 376 24
05/09/16 Video View Hicks, Aaron NYY Young, Chris KC 3 Yankee Stadi... PL 417 106.0 27.0 71.1 83 0 0 0 417 30
05/09/16 Video View Beltran, Carlos NYY Young, Chris KC 3 Yankee Stadi... JE 385 100.3 25.3 77.9 70 2 0 0 384 2
05/09/16 Video View Gardner, Brett NYY Young, Chris KC 3 Yankee Stadi... PL 406 101.1 28.9 77.0 91 7 0 0 398 26
05/09/16 Video View Hosmer, Eric KC Shreve, Chasen NYY 8 Yankee Stadi... ND 428 113.1 22.2 74.2 66 2 0 0 427 29
05/10/16 Video View Cuthbert, Cheslor KC Tanaka, Masahiro NYY 2 Yankee Stadi... PL 382 99.5 37.2 112.3 123 21 1 0 360 21
05/10/16 Video View Cain, Lorenzo KC Tanaka, Masahiro NYY 3 Yankee Stadi... JE 356 94.3 30.2 69.8 80 5 -1 0 352 1
05/10/16 Video View Cain, Lorenzo KC Tanaka, Masahiro NYY 5 Yankee Stadi... PL 442 111.6 22.9 99.6 77 0 -1 0 443 30
05/10/16 Video View Cain, Lorenzo KC Miller, Andrew NYY 8 Yankee Stadi... PL 390 99.6 27.0 77.5 78 5 -1 0 386 8
05/11/16 Video View Perez, Salvador KC Pineda, Michael NYY 1 Yankee Stadi... ND 414 105.7 32.9 111.5 118 7 0 0 406 30
05/11/16 Video View Beltran, Carlos NYY Ventura, Yordano KC 2 Yankee Stadi... JE 365 96.3 35.5 77.1 121 0 1 0 364 1
05/11/16 Video View Morales, Kendrys KC Coke, Phil NYY 7 Yankee Stadi... PL 359 96.9 29.4 63.9 77 2 0 0 357 14
05/12/16 Video View Castro, Starlin NYY Kennedy, Ian KC 1 Yankee Stadi... PL 380 97.5 31.5 76.9 102 0 0 0 380 15
05/12/16 Video View Headley, Chase NYY Kennedy, Ian KC 2 Yankee Stadi... PL 349 98.3 27.7 123.5 66 0 0 0 349 17
05/12/16 Video View Gordon, Alex KC Eovaldi, Nathan NYY 4 Yankee Stadi... ND 428 105.0 29.7 80.8 111 3 0 0 425 30
05/12/16 Video View Gregorius, Didi NYY Kennedy, Ian KC 4 Yankee Stadi... PL 384 100.2 29.0 71.5 88 0 0 0 385 27
05/13/16 Video View Headley, Chase NYY Sale, Chris CHW 2 Yankee Stadi... PL 387 100.9 34.3 116.2 108 11 -1 0 376 30
05/13/16 Video View Rollins, Jimmy CHW Severino, Luis NYY 3 Yankee Stadi... ND 378 100.5 35.9 60.4 115 12 -1 0 366 29
05/14/16 Video View Frazier, Todd CHW Nova, Ivan NYY 4 Yankee Stadi... JE 395 103.5 24.4 103.1 71 1 0 0 395 25
05/15/16 Video View McCann, Brian NYY Jones, Nate CHW 8 Yankee Stadi... PL 356 97.0 30.2 51.3 70 16 -6 0 345 20
05/15/16 Video View Beltran, Carlos NYY Duke, Zach CHW 6 Yankee Stadi... PL 373 92.5 33.6 122.8 74 43 -2 0 332 0
05/15/16 Video View Eaton, Adam CHW Tanaka, Masahiro NYY 3 Yankee Stadi... PL/L 411 95.9 38.7 77.4 119 66 -5 0 347 0
05/24/16 Video View Beltran, Carlos NYY Dickey, R.A. TOR 4 Yankee Stadi... ND 381 100.4 31.2 66.6 96 0 0 0 380 29
05/25/16 Video View Martin, Russell TOR Nova, Ivan NYY 6 Yankee Stadi... PL 385 99.0 34.4 106.0 116 4 3 0 377 24
05/25/16 Video View Saunders, Michael TOR Shreve, Chasen NYY 7 Yankee Stadi... PL 356 97.5 28.9 58.3 70 3 1 0 351 18
05/25/16 Video View Gregorius, Didi NYY Estrada, Marco TOR 7 Yankee Stadi... PL 370 96.3 31.5 71.8 94 2 2 0 366 7
05/25/16 Video View Martin, Russell TOR Shreve, Chasen NYY 7 Yankee Stadi... PL 391 101.7 26.8 70.9 75 5 1 0 385 25
05/25/16 Video View Romine, Austin NYY Girodo, Chad TOR 9 Yankee Stadi... JE 424 104.4 25.8 96.5 85 2 1 0 421 28
05/26/16 Video View Castro, Starlin NYY Happ, J.A. TOR 1 Yankee Stadi... PL 401 103.9 23.6 80.0 73 -1 1 0 400 22
06/06/16 Video View Castro, Starlin NYY Shoemaker, Matt LAA 7 Yankee Stadi... ND 413 107.7 32.7 117.7 115 2 3 0 409 30
06/06/16 Video View McCann, Brian NYY Shoemaker, Matt LAA 7 Yankee Stadi... ND 431 111.0 30.6 62.7 109 0 3 0 427 30
06/06/16 Video View Beltran, Carlos NYY Alvarez, Jose LAA 8 Yankee Stadi... PL 353 93.7 33.7 69.7 97 1 2 0 349 1
06/07/16 Video View Beltran, Carlos NYY Huff, David LAA 1 Yankee Stadi... PL 411 101.7 32.3 110.5 101 20 1 0 390 30
06/07/16 Video View Castro, Starlin NYY Huff, David LAA 3 Yankee Stadi... PL 332 90.9 35.8 57.0 89 8 1 0 323 2
06/07/16 Video View Calhoun, Kole LAA Pineda, Michael NYY 5 Yankee Stadi... JE 343 92.8 30.2 65.9 74 3 1 0 339 0
06/08/16 Video View Petit, Gregorio LAA Eovaldi, Nathan NYY 2 Yankee Stadi... PL 389 105.6 26.9 120.7 74 2 -1 0 388 30
06/08/16 Video View Marte, Jefry LAA Eovaldi, Nathan NYY 3 Yankee Stadi... ND 414 110.5 28.3 125.2 86 2 -1 0 413 30
06/08/16 Video View Ellsbury, Jacoby NYY Weaver, Jered LAA 3 Yankee Stadi... PL 366 103.3 39.1 67.8 151 9 -3 0 359 24
06/08/16 Video View Parmelee, Chris NYY Weaver, Jered LAA 6 Yankee Stadi... ND 385 104.5 27.0 57.8 70 5 -1 0 380 30
06/08/16 Video View Parmelee, Chris NYY Mahle, Greg LAA 7 Yankee Stadi... JE 388 106.9 20.8 78.7 55 -2 0 0 390 10
06/08/16 Video View Trout, Mike LAA Goody, Nick NYY 9 Yankee Stadi... ND 433 106.5 26.5 80.8 92 4 -1 0 430 30
06/08/16 Video View Beltran, Carlos NYY Mahle, Greg LAA 7 Yankee Stadi... PL 373 106.5 24.5 125.4 61 1 0 0 373 30
06/09/16 Video View Marte, Jefry LAA Nova, Ivan NYY 7 Yankee Stadi... ND 438 113.7 26.1 117.0 82 5 0 0 433 30
06/11/16 Video View Castellanos, Nick DET Tanaka, Masahiro NYY 2 Yankee Stadi... PL 402 99.2 32.8 77.9 110 13 4 0 387 10
06/11/16 Video View Kinsler, Ian DET Tanaka, Masahiro NYY 5 Yankee Stadi... ND/L 378 100.1 29.7 126.8 71 15 2 0 361 29
06/12/16 Video View Kinsler, Ian DET Swarzak, Anthony NYY 7 Yankee Stadi... PL 387 99.8 33.6 110.5 111 8 2 0 378 27
06/21/16 Video View Blackmon, Charlie COL Nova, Ivan NYY 1 Yankee Stadi... ND 386 102.7 35.5 56.3 113 7 3 0 375 30
06/21/16 Video View Blackmon, Charlie COL Nova, Ivan NYY 4 Yankee Stadi... PL 359 95.3 36.1 69.7 112 5 3 0 351 6
06/21/16 Video View Arenado, Nolan COL Goody, Nick NYY 6 Yankee Stadi... JE 339 98.8 26.0 127.0 58 -1 1 0 339 7
06/22/16 Video View Headley, Chase NYY Gray, Jon COL 2 Yankee Stadi... JE/L 425 98.3 33.0 85.4 103 35 2 0 389 0
06/22/16 Video View Hundley, Nick COL Sabathia, CC NYY 4 Yankee Stadi... JE/L 419 101.0 27.6 96.1 78 12 1 0 405 19
06/22/16 Video View Raburn, Ryan COL Swarzak, Anthony NYY 5 Yankee Stadi... JE/L 422 102.4 26.5 89.7 80 5 1 0 415 23
06/22/16 Video View Beltran, Carlos NYY Lyles, Jordan COL 7 Yankee Stadi... ND 417 99.9 36.2 68.0 113 48 3 0 367 12
06/22/16 Video View Castro, Starlin NYY Motte, Jason COL 9 Yankee Stadi... ND 428 108.2 32.0 116.2 111 12 3 0 414 30
06/24/16 Video View Hicks, Aaron NYY Boshers, Buddy MIN 8 Yankee Stadi... JE 367 99.7 27.1 112.3 75 -3 0 0 370 21
06/25/16 Video View Dozier, Brian MIN Pineda, Michael NYY 2 Yankee Stadi... PL 403 105.2 30.4 109.1 110 -10 2 0 411 30
06/26/16 Video View Santana, Danny MIN Eovaldi, Nathan NYY 3 Yankee Stadi... PL 370 105.4 24.0 58.2 58 0 1 0 368 27
06/26/16 Video View Dozier, Brian MIN Eovaldi, Nathan NYY 6 Yankee Stadi... JE 379 103.0 25.4 112.7 68 0 1 0 379 26
06/26/16 Video View Plouffe, Trevor MIN Eovaldi, Nathan NYY 6 Yankee Stadi... PL 399 103.6 33.6 114.8 114 5 3 0 391 30
06/26/16 Video View Kepler, Max MIN Eovaldi, Nathan NYY 6 Yankee Stadi... PL 349 94.7 30.0 64.4 76 1 2 0 347 4
06/26/16 Video View Nunez, Eduardo MIN Cessa, Luis NYY 7 Yankee Stadi... PL 388 103.7 27.2 114.8 77 -1 1 0 387 30
06/26/16 Video View Teixeira, Mark NYY Duffey, Tyler MIN 8 Yankee Stadi... PL 384 100.9 24.9 76.5 68 1 1 0 382 6
06/26/16 Video View Centeno, Juan MIN Yates, Kirby NYY 9 Yankee Stadi... ND 413 102.2 34.9 77.5 128 17 4 0 392 24
06/27/16 Video View Desmond, Ian TEX Nova, Ivan NYY 1 Yankee Stadi... PL 374 98.4 27.9 72.5 79 0 0 0 374 17
06/27/16 Video View Teixeira, Mark NYY Jackson, Luke TEX 7 Yankee Stadi... JE 346 104.5 22.0 56.6 48 0 0 0 346 5
06/27/16 Video View Odor, Rougned TEX Miller, Andrew NYY 8 Yankee Stadi... ND 402 106.2 30.0 60.9 94 0 0 0 402 30
06/28/16 Video View Beltre, Adrian TEX Sabathia, CC NYY 1 Yankee Stadi... PL 361 94.0 34.8 73.7 105 7 1 0 353 1
06/29/16 Video View Headley, Chase NYY Martinez, Nick TEX 2 Yankee Stadi... ND 396 100.1 30.5 71.4 91 9 2 0 385 27
06/29/16 Video View Odor, Rougned TEX Tanaka, Masahiro NYY 6 Yankee Stadi... JE 373 96.7 31.5 110.3 90 6 1 0 366 15
06/29/16 Video View Beltre, Adrian TEX Cessa, Luis NYY 8 Yankee Stadi... JE 345 92.6 30.2 62.4 71 10 0 0 334 0
06/29/16 Video View McCann, Brian NYY Ramos, Cesar TEX 8 Yankee Stadi... JE 356 94.5 28.5 70.1 71 6 1 0 350 0
06/29/16 Video View Gregorius, Didi NYY Dyson, Sam TEX 9 Yankee Stadi... JE 365 99.4 24.5 73.3 61 1 0 0 364 1
06/29/16 Video View McCann, Brian NYY Dyson, Sam TEX 9 Yankee Stadi... PL 381 101.6 25.4 71.7 68 1 0 0 379 18
06/30/16 Video View Choo, Shin-Soo TEX Pineda, Michael NYY 1 Yankee Stadi... JE 360 102.6 23.8 62.7 55 2 0 0 358 8
06/30/16 Video View Gregorius, Didi NYY Griffin, A.J. TEX 5 Yankee Stadi... JE 356 93.8 36.7 71.5 114 10 3 0 343 0
07/15/16 Video View Hanigan, Ryan BOS Pineda, Michael NYY 3 Yankee Stadi... JE 398 98.9 31.7 101.3 104 6 3 0 389 16
07/15/16 Video View Shaw, Travis BOS Pineda, Michael NYY 5 Yankee Stadi... ND 430 111.1 22.9 76.6 72 0 1 0 429 29
07/15/16 Video View Bogaerts, Xander BOS Pineda, Michael NYY 6 Yankee Stadi... ND 403 104.9 35.0 113.2 127 6 5 0 391 30
07/16/16 Video View Gardner, Brett NYY Rodriguez, Eduardo BOS 3 Yankee Stadi... PL 415 105.8 22.9 81.9 71 3 1 0 412 17
07/16/16 Video View Leon, Sandy BOS Sabathia, CC NYY 6 Yankee Stadi... ND 424 109.4 27.5 111.0 94 -4 2 0 426 30
07/16/16 Video View Headley, Chase NYY Barnes, Matt BOS 8 Yankee Stadi... PL 418 104.7 25.6 80.5 84 0 1 0 416 28
07/17/16 Video View Pedroia, Dustin BOS Tanaka, Masahiro NYY 1 Yankee Stadi... JE 347 96.4 28.6 123.2 67 2 2 0 342 4
07/18/16 Video View Rodriguez, Alex NYY Gausman, Kevin BAL 2 Yankee Stadi... ND 440 109.5 31.0 106.0 122 2 3 0 435 30
07/18/16 Video View Schoop, Jonathan BAL Nova, Ivan NYY 3 Yankee Stadi... JE 407 101.6 28.2 101.4 91 4 1 0 403 26
07/19/16 Video View Castro, Starlin NYY Worley, Vance BAL 2 Yankee Stadi... ND 422 111.8 27.0 122.4 82 2 1 0 419 30
07/19/16 Video View Headley, Chase NYY Givens, Mychal BAL 8 Yankee Stadi... ND 391 102.3 23.8 79.9 72 0 0 0 391 14
07/20/16 Video View Teixeira, Mark NYY Gallardo, Yovani BAL 4 Yankee Stadi... JE 361 106.2 21.7 63.4 51 1 0 0 361 10
07/20/16 Video View Beltran, Carlos NYY Roe, Chaz BAL 8 Yankee Stadi... ND 399 106.4 29.5 60.0 92 -3 1 0 401 30
07/23/16 Video View Williamson, Mac SF Nova, Ivan NYY 5 Yankee Stadi... PL 419 106.4 24.0 99.7 77 0 2 0 418 30
07/24/16 Video View Beltran, Carlos NYY Samardzija, Jeff SF 1 Yankee Stadi... PL/L 347 91.6 36.4 70.1 103 9 4 0 334 0
07/24/16 Video View Teixeira, Mark NYY Samardzija, Jeff SF 2 Yankee Stadi... PL 425 102.8 28.5 86.6 99 4 3 0 419 25
08/03/16 Video View Granderson, Curtis NYM Green, Chad NYY 1 Yankee Stadi... JE 329 97.1 40.8 64.3 138 0 3 0 326 2
08/03/16 Video View Teixeira, Mark NYY Matz, Steven NYM 2 Yankee Stadi... JE 356 93.8 29.4 74.3 80 0 1 0 355 0
08/03/16 Video View Walker, Neil NYM Clippard, Tyler NYY 9 Yankee Stadi... PL 384 100.7 26.3 74.2 76 0 0 0 384 21
08/04/16 Video View Johnson, Kelly NYM Eovaldi, Nathan NYY 5 Yankee Stadi... JE 342 105.8 20.9 55.8 44 0 1 0 342 1
08/04/16 Video View Bruce, Jay NYM Eovaldi, Nathan NYY 5 Yankee Stadi... PL 405 101.2 27.3 82.3 90 0 0 0 404 16
08/05/16 Video View Castro, Starlin NYY Tomlin, Josh CLE 3 Yankee Stadi... PL 369 95.4 32.2 76.3 100 0 2 0 367 1
08/05/16 Video View Gimenez, Chris CLE Pineda, Michael NYY 5 Yankee Stadi... PL 398 101.2 31.8 104.2 111 0 2 0 396 30
08/05/16 Video View Hicks, Aaron NYY Morimando, Shawn CLE 7 Yankee Stadi... PL 354 94.4 34.4 119.9 91 10 1 0 343 5
08/06/16 Video View Kipnis, Jason CLE Sabathia, CC NYY 4 Yankee Stadi... PL 399 99.1 35.7 78.7 123 19 4 0 377 3
08/06/16 Video View Napoli, Mike CLE Sabathia, CC NYY 6 Yankee Stadi... ND 408 105.3 24.6 76.0 71 1 1 0 405 29
08/06/16 Video View Davis, Rajai CLE Swarzak, Anthony NYY 7 Yankee Stadi... PL 401 104.5 27.6 112.4 82 2 2 0 398 30
08/07/16 Video View Gregorius, Didi NYY Carrasco, Carlos CLE 4 Yankee Stadi... JE 353 101.0 24.7 55.4 55 6 1 0 346 3
08/12/16 Video View Longoria, Evan TB Sabathia, CC NYY 1 Yankee Stadi... PL 403 102.7 31.4 107.1 108 0 3 0 400 30
08/12/16 Video View Castro, Starlin NYY Archer, Chris TB 6 Yankee Stadi... JE/L 417 102.2 31.0 94.3 116 0 3 0 414 25
08/12/16 Video View Hicks, Aaron NYY Garton, Ryan TB 7 Yankee Stadi... JE 340 90.0 38.3 121.6 96 23 3 0 314 0
08/13/16 Video View Austin, Tyler NYY Andriese, Matt TB 2 Yankee Stadi... JE 331 92.2 31.1 57.1 73 0 2 0 328 1
08/13/16 Video View Judge, Aaron NYY Andriese, Matt TB 2 Yankee Stadi... PL 457 109.0 26.1 88.4 101 0 3 0 454 30
08/13/16 Video View Miller, Brad TB Tanaka, Masahiro NYY 4 Yankee Stadi... JE 375 100.6 26.7 112.0 72 0 2 0 373 21
08/13/16 Video View Castro, Starlin NYY Andriese, Matt TB 4 Yankee Stadi... JE 423 104.9 23.8 90.8 78 0 1 0 422 27
08/13/16 Video View Hicks, Aaron NYY Andriese, Matt TB 5 Yankee Stadi... ND 384 100.0 31.1 67.9 95 0 4 0 380 29
08/13/16 Video View Miller, Brad TB Tanaka, Masahiro NYY 6 Yankee Stadi... PL 373 96.3 29.8 75.1 87 0 3 0 370 4
08/13/16 Video View Gregorius, Didi NYY Ramirez, Erasmo TB 7 Yankee Stadi... PL 374 99.7 25.9 72.8 69 0 1 0 373 8
08/14/16 Video View Judge, Aaron NYY Odorizzi, Jake TB 3 Yankee Stadi... JE 364 99.0 24.2 75.0 61 0 0 0 363 0
08/14/16 Video View Forsythe, Logan TB Severino, Luis NYY 3 Yankee Stadi... PL 393 102.3 24.1 79.2 70 0 0 0 392 14
08/14/16 Video View Dickerson, Corey TB Severino, Luis NYY 4 Yankee Stadi... JE 362 96.4 31.0 114.1 86 0 2 0 359 13
08/14/16 Video View Sanchez, Gary NYY Odorizzi, Jake TB 4 Yankee Stadi... PL 396 103.6 30.1 115.9 92 0 3 0 393 30
08/14/16 Video View Franklin, Nick TB Cessa, Luis NYY 7 Yankee Stadi... JE 350 106.3 21.1 57.9 46 0 1 0 349 4
08/16/16 Video View Gregorius, Didi NYY Estrada, Marco TOR 1 Yankee Stadi... ND 376 101.1 30.5 57.9 85 0 2 0 373 30
08/16/16 Video View Sanchez, Gary NYY Estrada, Marco TOR 2 Yankee Stadi... PL 417 104.5 26.2 100.4 87 0 2 0 416 30
08/16/16 Video View Sanchez, Gary NYY Estrada, Marco TOR 4 Yankee Stadi... ND 418 108.4 32.9 115.4 121 0 4 0 413 30
08/16/16 Video View Tulowitzki, Troy TOR Swarzak, Anthony NYY 6 Yankee Stadi... JE/L 335 92.3 37.4 67.7 111 0 3 0 331 0
08/16/16 Video View Martin, Russell TOR Swarzak, Anthony NYY 6 Yankee Stadi... PL 428 104.7 26.4 94.5 94 0 1 0 427 29
08/16/16 Video View Encarnacion, Edwin TOR Warren, Adam NYY 8 Yankee Stadi... ND 411 109.9 25.3 116.0 73 0 2 0 409 30
08/16/16 Video View Martin, Russell TOR Warren, Adam NYY 8 Yankee Stadi... PL 351 94.3 34.1 66.4 98 0 3 0 349 9
08/17/16 Video View Sanchez, Gary NYY Happ, J.A. TOR 2 Yankee Stadi... PL 430 104.3 28.5 91.1 107 0 1 0 429 27
08/17/16 Video View Castro, Starlin NYY Happ, J.A. TOR 4 Yankee Stadi... PL 373 107.5 23.7 125.9 57 0 1 0 372 30
08/17/16 Video View Upton Jr., Melvin TOR Sabathia, CC NYY 5 Yankee Stadi... PL 365 97.7 27.6 69.7 74 0 1 0 364 11
08/17/16 Video View Headley, Chase NYY Happ, J.A. TOR 6 Yankee Stadi... ND 423 110.4 23.8 107.1 73 0 1 0 422 30
08/26/16 Video View Machado, Manny BAL Cessa, Luis NYY 1 Yankee Stadi... JE 421 106.7 21.7 89.0 67 -1 0 0 422 25
08/26/16 Video View Teixeira, Mark NYY Gallardo, Yovani BAL 1 Yankee Stadi... ND 430 104.6 32.9 82.6 128 9 4 0 417 29
08/26/16 Video View Headley, Chase NYY Worley, Vance BAL 4 Yankee Stadi... PL 348 92.9 32.4 68.8 88 0 2 0 345 1
08/26/16 Video View Sanchez, Gary NYY Worley, Vance BAL 5 Yankee Stadi... PL 385 103.1 35.2 108.7 134 -8 5 0 388 30
08/26/16 Video View Machado, Manny BAL Cessa, Luis NYY 6 Yankee Stadi... PL 362 96.2 32.2 68.3 94 -2 2 0 362 18
08/27/16 Video View Davis, Chris BAL Green, Chad NYY 3 Yankee Stadi... PL 423 104.2 33.0 88.5 134 0 4 0 419 27
08/27/16 Video View Sanchez, Gary NYY Bundy, Dylan BAL 4 Yankee Stadi... JE 372 102.9 21.7 77.6 55 0 0 0 372 0
08/27/16 Video View Trumbo, Mark BAL Green, Chad NYY 5 Yankee Stadi... PL 385 99.9 26.8 75.6 78 0 1 0 384 18
08/27/16 Video View Hicks, Aaron NYY McFarland, T.J. BAL 5 Yankee Stadi... PL 386 100.6 35.0 106.2 126 0 4 0 382 27
08/27/16 Video View Castro, Starlin NYY McFarland, T.J. BAL 5 Yankee Stadi... PL 392 107.7 24.2 115.5 65 0 1 0 391 30
08/28/16 Video View Pearce, Steve BAL Sabathia, CC NYY 6 Yankee Stadi... PL 406 102.6 31.2 105.3 108 0 3 0 403 30
08/28/16 Video View Trumbo, Mark BAL Heller, Ben NYY 8 Yankee Stadi... JE 422 108.6 21.7 97.2 68 0 0 0 421 28
09/05/16 Video View Ellsbury, Jacoby NYY Dickey, R.A. TOR 1 Yankee Stadi... PL 349 94.9 30.6 68.2 87 -7 0 0 355 15
09/06/16 Video View Encarnacion, Edwin TOR Cessa, Luis NYY 1 Yankee Stadi... ND 431 113.3 26.1 117.4 82 0 1 0 430 30
09/06/16 Video View McCann, Brian NYY Sanchez, Aaron TOR 4 Yankee Stadi... PL 377 102.3 36.6 69.3 136 0 2 0 375 29
09/06/16 Video View Austin, Tyler NYY Sanchez, Aaron TOR 7 Yankee Stadi... ND 427 106.8 26.0 78.5 89 0 1 0 426 29
09/06/16 Video View Headley, Chase NYY Grilli, Jason TOR 8 Yankee Stadi... JE 368 100.5 23.2 76.1 60 0 0 0 368 1
09/07/16 Video View Castro, Starlin NYY Stroman, Marcus TOR 3 Yankee Stadi... JE 392 110.1 20.5 105.4 54 0 0 0 392 22
09/08/16 Video View Kiermaier, Kevin TB Sabathia, CC NYY 1 Yankee Stadi... ND 393 104.7 30.3 57.9 90 0 2 0 391 30
09/08/16 Video View Souza Jr., Steven TB Sabathia, CC NYY 2 Yankee Stadi... JE 399 100.0 33.1 83.7 121 0 3 0 396 12
09/08/16 Video View McCann, Brian NYY Cobb, Alex TB 2 Yankee Stadi... ND 412 107.2 33.6 67.6 127 0 3 0 408 30
09/08/16 Video View Kiermaier, Kevin TB Sabathia, CC NYY 3 Yankee Stadi... PL 372 100.0 28.4 64.0 77 0 1 0 370 26
09/08/16 Video View McCann, Brian NYY Cobb, Alex TB 4 Yankee Stadi... ND 384 105.6 25.3 61.7 67 0 1 0 383 29
09/08/16 Video View Souza Jr., Steven TB Holder, Jonathan NYY 6 Yankee Stadi... ND 461 110.9 24.6 92.7 96 0 1 0 460 30
09/08/16 Video View Austin, Tyler NYY Ramirez, Erasmo TB 9 Yankee Stadi... PL 381 99.3 26.4 76.4 75 0 1 0 380 6
09/09/16 Video View Sanchez, Gary NYY Snell, Blake TB 3 Yankee Stadi... JE 423 103.8 25.3 89.6 86 0 1 0 421 27
09/09/16 Video View Morrison, Logan TB Pineda, Michael NYY 4 Yankee Stadi... ND 432 110.8 30.6 64.1 110 0 4 0 429 30
09/09/16 Video View Souza Jr., Steven TB Pineda, Michael NYY 4 Yankee Stadi... PL 358 99.9 28.0 125.8 68 0 1 0 356 29
09/09/16 Video View Teixeira, Mark NYY Jepsen, Kevin TB 4 Yankee Stadi... JE/L 390 103.0 22.3 82.1 63 0 0 0 391 1
09/10/16 Video View Ellsbury, Jacoby NYY Archer, Chris TB 6 Yankee Stadi... PL 407 107.7 22.1 78.5 64 0 0 0 407 27
09/10/16 Video View Sanchez, Gary NYY Archer, Chris TB 6 Yankee Stadi... JE 421 110.3 20.0 95.6 61 0 0 0 421 26
09/10/16 Video View Wilson, Bobby TB Tanaka, Masahiro NYY 8 Yankee Stadi... JE 373 98.7 27.7 109.1 76 0 1 0 372 17
09/11/16 Video View Dickerson, Corey TB Cessa, Luis NYY 2 Yankee Stadi... JE 361 104.1 22.4 66.3 53 0 0 0 360 6
09/11/16 Video View Headley, Chase NYY Andriese, Matt TB 5 Yankee Stadi... PL 384 101.1 27.1 70.7 77 0 1 0 383 25
09/11/16 Video View Forsythe, Logan TB Cessa, Luis NYY 6 Yankee Stadi... PL 410 106.1 24.7 104.4 76 0 1 0 409 30
09/12/16 Video View Castro, Starlin NYY De Leon, Jose LAD 2 Yankee Stadi... ND 397 105.5 33.7 117.3 117 0 0 0 397 30
09/12/16 Video View Judge, Aaron NYY De Leon, Jose LAD 5 Yankee Stadi... ND 443 108.8 29.8 100.1 122 0 0 0 443 30
09/12/16 Video View Puig, Yasiel LAD Pazos, James NYY 8 Yankee Stadi... JE 332 91.6 34.5 62.7 91 0 0 0 332 1
09/12/16 Video View Turner, Justin LAD Heller, Ben NYY 9 Yankee Stadi... JE 344 95.4 26.8 67.5 65 0 0 0 344 1
09/13/16 Video View Ellsbury, Jacoby NYY Stripling, Ross LAD 7 Yankee Stadi... PL 369 98.0 34.1 68.2 109 0 1 0 368 24
09/13/16 Video View Gregorius, Didi NYY Stripling, Ross LAD 7 Yankee Stadi... PL 367 95.4 31.5 75.4 95 0 0 0 367 1
09/13/16 Video View Sanchez, Gary NYY Chavez, Jesse LAD 8 Yankee Stadi... PL 396 100.1 31.3 77.9 107 0 1 0 395 26
05/25/16 Video View Headley, Chase NYY Estrada, Marco TOR 7 Yankee Stadi... PL 358 96.6 27.6 68.5 71 1 1 1 356 1
08/27/16 Video View Davis, Chris BAL Green, Chad NYY 5 Yankee Stadi... ND 401 108.8 25.4 61.1 71 0 1 1 400 30
09/11/16 Video View Miller, Brad TB Cessa, Luis NYY 6 Yankee Stadi... PL 353 94.5 32.6 67.1 92 0 1 1 352 9


About HitTracker | Contact Us
© 2006-2016 HitTrackerOnline